createdAt,value
2023-05-25T00:00:14.210Z,23.90
2023-05-25T00:02:44.590Z,22.10
2023-05-25T00:05:11.424Z,24.00
2023-05-25T00:07:38.819Z,23.80
2023-05-25T00:10:07.059Z,22.20
2023-05-25T00:12:34.348Z,24.00
2023-05-25T00:15:01.176Z,24.40
2023-05-25T00:17:30.086Z,24.60
2023-05-25T00:19:58.225Z,28.80
2023-05-25T00:22:29.212Z,24.90
2023-05-25T00:24:56.078Z,24.90
2023-05-25T00:27:23.144Z,22.80
2023-05-25T00:29:49.708Z,25.50
2023-05-25T00:32:16.456Z,24.70
2023-05-25T00:34:43.103Z,26.20
2023-05-25T00:37:10.734Z,24.70
2023-05-25T00:39:37.318Z,25.10
2023-05-25T00:42:05.117Z,27.00
2023-05-25T00:44:32.290Z,29.30
2023-05-25T00:46:59.961Z,27.70
2023-05-25T00:49:27.464Z,32.00
2023-05-25T00:51:54.372Z,26.80
2023-05-25T00:54:21.934Z,27.50
2023-05-25T00:56:57.247Z,26.90
2023-05-25T00:59:30.939Z,29.40
2023-05-25T01:01:59.404Z,32.40
2023-05-25T01:04:28.402Z,29.90
2023-05-25T01:06:57.939Z,27.40
2023-05-25T01:09:28.566Z,28.80
2023-05-25T01:11:56.699Z,30.20
2023-05-25T01:14:24.954Z,29.20
2023-05-25T01:16:52.257Z,30.50
2023-05-25T01:19:18.979Z,29.00
2023-05-25T01:22:03.804Z,27.40
2023-05-25T01:24:53.640Z,30.40
2023-05-25T01:27:33.411Z,30.30
2023-05-25T01:32:28.896Z,33.40
2023-05-25T01:34:58.024Z,30.20
2023-05-25T01:37:26.482Z,32.60
2023-05-25T01:39:53.121Z,27.60
2023-05-25T01:42:19.756Z,28.50
2023-05-25T01:44:46.544Z,29.40
2023-05-25T01:47:26.138Z,28.30
2023-05-25T01:50:21.534Z,32.90
2023-05-25T01:52:57.275Z,35.60
2023-05-25T01:55:28.992Z,32.50
2023-05-25T01:57:58.614Z,35.70
2023-05-25T02:00:31.443Z,37.90
2023-05-25T02:02:58.467Z,36.90
2023-05-25T02:05:27.923Z,33.40
2023-05-25T02:07:54.882Z,36.50
2023-05-25T02:10:21.631Z,35.90
2023-05-25T02:12:49.054Z,34.40
2023-05-25T02:17:57.802Z,33.30
2023-05-25T02:20:24.975Z,42.70
2023-05-25T02:22:51.803Z,38.90
2023-05-25T02:25:18.360Z,35.90
2023-05-25T02:27:45.336Z,37.70
2023-05-25T02:30:12.143Z,36.70
2023-05-25T02:32:38.781Z,38.60
2023-05-25T02:35:06.470Z,38.70
2023-05-25T02:37:33.592Z,37.40
2023-05-25T02:40:00.246Z,36.90
2023-05-25T02:42:26.902Z,38.30
2023-05-25T02:44:53.486Z,40.00
2023-05-25T02:47:20.295Z,36.70
2023-05-25T02:49:47.069Z,42.00
2023-05-25T02:52:13.702Z,46.90
2023-05-25T02:54:40.432Z,42.80
2023-05-25T02:57:08.477Z,40.20
2023-05-25T02:59:35.293Z,41.30
2023-05-25T03:02:02.760Z,41.60
2023-05-25T03:04:31.254Z,45.80
2023-05-25T03:06:58.550Z,45.10
2023-05-25T03:09:26.380Z,43.50
2023-05-25T03:11:53.065Z,44.80
2023-05-25T03:14:20.546Z,46.80
2023-05-25T03:16:56.423Z,54.20
2023-05-25T03:19:23.378Z,51.80
2023-05-25T03:21:50.390Z,55.10
2023-05-25T03:24:18.338Z,52.70
2023-05-25T03:26:45.077Z,53.60
2023-05-25T03:29:11.773Z,52.10
2023-05-25T03:31:38.442Z,52.40
2023-05-25T03:34:06.429Z,52.20
2023-05-25T03:36:34.271Z,50.20
2023-05-25T03:39:01.232Z,48.60
2023-05-25T03:41:28.269Z,44.00
2023-05-25T03:43:55.326Z,45.70
2023-05-25T03:46:22.101Z,41.40
2023-05-25T03:48:48.779Z,43.30
2023-05-25T03:51:16.487Z,37.90
2023-05-25T03:53:43.175Z,38.00
2023-05-25T03:56:09.864Z,44.30
2023-05-25T03:58:37.357Z,51.10
2023-05-25T04:01:05.225Z,41.90
2023-05-25T04:03:33.219Z,41.70
2023-05-25T04:06:00.851Z,37.10
2023-05-25T04:08:29.080Z,42.20
2023-05-25T04:10:56.492Z,48.30
2023-05-25T04:13:23.182Z,44.50
2023-05-25T04:15:51.325Z,44.70
